This is the latest recevied weather packets stored in our database for station/object XE2KK-10. If no packets are shown the sender has not sent any weather packets the latest 10 day(s).
| Time | Temp. | Humidity | Pressure | Rain* | Wind** | Luminosity | Snow |
|---|---|---|---|---|---|---|---|
| 1777652952 | 17.78° C | 95% | 1013.1 hPa | 0 mm | - | 94 W/m² | - |
| 1777652653 | 17.78° C | 95% | 1013.2 hPa | 0 mm | - | 74 W/m² | - |
| 1777652353 | 17.78° C | 95% | 1013.2 hPa | 0 mm | - | 59 W/m² | - |
| 1777652053 | 17.78° C | 95% | 1013.3 hPa | 0 mm | - | 49 W/m² | - |
| 1777651753 | 17.78° C | 95% | 1013.1 hPa | 0 mm | - | 48 W/m² | - |
| 1777651452 | 17.78° C | 95% | 1013.5 hPa | 0 mm | - | 42 W/m² | - |
| 1777651152 | 17.78° C | 96% | 1013.1 hPa | 0 mm | - | 47 W/m² | - |
| 1777650853 | 17.78° C | 96% | 1013.1 hPa | 0 mm | - | 58 W/m² | - |
| 1777650553 | 17.22° C | 96% | 1013 hPa | 0 mm | - | 71 W/m² | - |
| 1777650253 | 17.78° C | 96% | 1013.3 hPa | 0 mm | - | 67 W/m² | - |
| 1777649953 | 17.78° C | 96% | 1013.1 hPa | 0 mm | - | 120 W/m² | - |
| 1777649652 | 17.78° C | 96% | 1012.9 hPa | 0 mm | - | 141 W/m² | - |
| 1777649352 | 17.22° C | 96% | 1013.1 hPa | 0 mm | - | 121 W/m² | - |
| 1777649053 | 17.22° C | 96% | 1013 hPa | 0 mm | - | 108 W/m² | - |
| 1777648753 | 17.22° C | 96% | 1013 hPa | 0 mm | - | 60 W/m² | - |
| 1777648453 | 17.78° C | 96% | 1012.6 hPa | 0 mm | - | 87 W/m² | - |
| 1777648153 | 17.78° C | 96% | 1012.8 hPa | 0 mm | - | 47 W/m² | - |
| 1777647853 | 17.22° C | 96% | 1013.4 hPa | 0 mm | - | 31 W/m² | - |
| 1777647553 | 17.78° C | 96% | 1013.1 hPa | 0 mm | - | 39 W/m² | - |
| 1777647253 | 17.22° C | 96% | 1012.8 hPa | 0 mm | - | 29 W/m² | - |
| 1777646953 | 17.22° C | 96% | 1012 hPa | 0 mm | - | 108 W/m² | - |
| 1777646653 | 17.22° C | 96% | 1012.6 hPa | 0 mm | - | 94 W/m² | - |
| 1777646352 | 17.22° C | 96% | 1012.8 hPa | 0 mm | - | 90 W/m² | - |
| 1777646053 | 17.22° C | 96% | 1013 hPa | 0 mm | - | 42 W/m² | - |
| 1777645753 | 17.22° C | 96% | 1012.7 hPa | 0 mm | - | 67 W/m² | - |
* Rain latest hour (hover to see other rain measurements)
** Current wind speed in m/s (hover to see current wind gust speed)